Aeroporto :
LOGIN :

Iscrizione | Disclaimer

   EN    FR    IT 

 










Sommario :    VFR   VFR Marginale   IFR   IFR Intensivo   IFR Molto Intensivo
Visibilità : 
Base nubi : 
>= 8 km
>= 3000ft
5 / 8 km
1000 / 3000 ft
1500m / 5 km
500 / 1000 ft
800 / 1500m
200 / 500 ft
< 800m
< 200 ft
Simboli :   Temporali  Nebbia  Neve Forte  Precipitazioni Forti  Vento > 20 kt
SIGMETs :   Varie  Temporali  Ghiacco  Turbolenza  Onda orograficha  Ceneri Vulcaniche






- Altitudine del aeroporto : 18 ft


LIPC - Cervia AFB Ravenna

ULTIMO METAR :
  • 242255Z 26002KT CAVOK 13/13 Q1026

METARs OBSOLETI :
  • 242155Z 21002KT CAVOK 13/12 Q1026 RMK SKC VIS MIN 9999 WIND THR11 25003KT WIND THR29 22003KT BLU
  • 242055Z 12002KT CAVOK 15/13 Q1026 RMK SKC VIS MIN 9999 WIND THR11 VRB01KT WIND THR29 14002KT BLU

TAF TAF LIPC
Valido dal 25 a 00 ore il 25 a 09 ore UTC


242300Z 2500/2509 27004KT CAVOK



MetMap, La meteo Aeronautica in un colpo d'occhio ! - Copyright ORBIFLY Dicembre 2007 - Disclaimer

ORBIFLY MET'MAP TEAM :

Programmazione e sviluppo : Alexandra Zaïnal
Concezione : Baudouin d'Aumeries
Aiuto per la programmazione : Marc-Olivier Méhu
Supporto tecnico e logistico : Manuel Goepfert
Aiuto per la traduzione : Arnaldo La Scala

Contatto : metmap@orbifly.com




FONTI E CREDITI :

   NOAA